createdAt,value
2022-11-07T00:00:26.949Z,85.93
2022-11-07T00:01:26.974Z,85.93
2022-11-07T00:02:27.016Z,85.93
2022-11-07T00:03:26.905Z,85.93
2022-11-07T00:04:26.913Z,85.93
2022-11-07T00:05:26.867Z,85.93
2022-11-07T00:06:26.931Z,85.79
2022-11-07T00:07:26.846Z,85.79
2022-11-07T00:08:26.836Z,85.69
2022-11-07T00:09:26.819Z,85.69
2022-11-07T00:10:26.824Z,85.79
2022-11-07T00:11:26.847Z,85.58
2022-11-07T00:12:26.786Z,85.48
2022-11-07T00:13:26.776Z,85.17
2022-11-07T00:14:26.769Z,85.17
2022-11-07T00:15:26.769Z,85.07
2022-11-07T00:16:26.751Z,85.11
2022-11-07T00:17:26.717Z,85.11
2022-11-07T00:18:26.719Z,85.11
2022-11-07T00:19:26.697Z,85.22
2022-11-07T00:20:26.742Z,85.31
2022-11-07T00:21:26.666Z,85.31
2022-11-07T00:22:26.664Z,85.31
2022-11-07T00:23:26.677Z,85.31
2022-11-07T00:24:26.637Z,85.42
2022-11-07T00:25:26.607Z,85.42
2022-11-07T00:26:26.630Z,85.52
2022-11-07T00:27:26.628Z,85.52
2022-11-07T00:28:26.579Z,85.52
2022-11-07T00:29:26.566Z,85.52
2022-11-07T00:30:26.558Z,85.52
2022-11-07T00:31:26.545Z,85.63
2022-11-07T00:32:26.528Z,85.63
2022-11-07T00:33:26.519Z,85.63
2022-11-07T00:34:26.497Z,85.72
2022-11-07T00:35:26.486Z,85.63
2022-11-07T00:36:26.501Z,85.63
2022-11-07T00:37:26.456Z,85.93
2022-11-07T00:38:26.447Z,86.24
2022-11-07T00:39:26.437Z,86.34
2022-11-07T00:40:26.428Z,86.34
2022-11-07T00:41:26.443Z,86.34
2022-11-07T00:42:26.403Z,86.44
2022-11-07T00:43:26.378Z,86.44
2022-11-07T00:44:26.370Z,86.44
2022-11-07T00:45:26.347Z,86.55
2022-11-07T00:46:26.357Z,86.55
2022-11-07T00:47:26.328Z,86.65
2022-11-07T00:48:26.319Z,86.65
2022-11-07T00:49:26.308Z,86.85
2022-11-07T00:50:26.289Z,86.96
2022-11-07T00:51:26.284Z,86.96
2022-11-07T00:52:26.257Z,87.06
2022-11-07T00:53:26.266Z,87.06
2022-11-07T00:54:26.238Z,86.96
2022-11-07T00:55:26.215Z,87.06
2022-11-07T00:56:26.227Z,87.06
2022-11-07T00:57:26.200Z,87.16
2022-11-07T00:58:26.188Z,87.06
2022-11-07T00:59:26.167Z,87.06
2022-11-07T01:00:26.163Z,87.26
2022-11-07T01:01:26.292Z,87.47
2022-11-07T01:02:26.290Z,87.37
2022-11-07T01:03:26.119Z,87.37
2022-11-07T01:04:26.110Z,87.37
2022-11-07T01:05:26.086Z,87.37
2022-11-07T01:06:26.098Z,87.57
2022-11-07T01:07:26.066Z,87.67
2022-11-07T01:08:26.052Z,87.88
2022-11-07T01:09:26.037Z,87.98
2022-11-07T01:10:26.028Z,88.29
2022-11-07T01:11:26.036Z,88.29
2022-11-07T01:12:25.999Z,88.39
2022-11-07T01:13:25.989Z,88.39
2022-11-07T01:14:25.982Z,88.49
2022-11-07T01:15:25.949Z,88.39
2022-11-07T01:16:25.970Z,88.39
2022-11-07T01:17:25.929Z,88.24
2022-11-07T01:18:25.922Z,88.14
2022-11-07T01:19:25.907Z,88.04
2022-11-07T01:20:25.898Z,88.04
2022-11-07T01:21:25.889Z,88.56
2022-11-07T01:22:25.873Z,88.56
2022-11-07T01:23:25.850Z,88.45
2022-11-07T01:24:25.840Z,88.35
2022-11-07T01:25:25.829Z,88.35
2022-11-07T01:26:25.838Z,88.35
2022-11-07T01:27:25.788Z,88.24
2022-11-07T01:28:25.790Z,88.14
2022-11-07T01:29:25.778Z,88.04
2022-11-07T01:30:25.772Z,88.04
2022-11-07T01:31:25.769Z,88.24
2022-11-07T01:32:25.748Z,88.35
2022-11-07T01:33:25.721Z,88.39
2022-11-07T01:34:25.712Z,88.49
2022-11-07T01:35:25.699Z,88.49
2022-11-07T01:36:25.698Z,88.59
2022-11-07T01:37:25.667Z,88.80
2022-11-07T01:38:25.658Z,88.90
2022-11-07T01:39:25.640Z,89.00
2022-11-07T01:40:25.642Z,89.11
2022-11-07T01:41:25.786Z,89.21
2022-11-07T01:42:25.608Z,89.36
2022-11-07T01:43:25.580Z,89.56
2022-11-07T01:44:25.580Z,89.66
2022-11-07T01:45:25.560Z,89.87
2022-11-07T01:46:25.569Z,89.87
2022-11-07T01:47:25.531Z,89.87
2022-11-07T01:48:25.530Z,90.07
2022-11-07T01:49:25.517Z,90.28
2022-11-07T01:50:25.500Z,90.28
2022-11-07T01:51:25.499Z,90.37
2022-11-07T01:52:25.479Z,90.28
2022-11-07T01:53:25.460Z,90.37
2022-11-07T01:54:25.449Z,90.37
2022-11-07T01:55:25.439Z,90.37
2022-11-07T01:56:25.440Z,90.28
2022-11-07T01:57:25.407Z,90.28
2022-11-07T01:58:25.399Z,90.37
2022-11-07T01:59:25.387Z,90.37
2022-11-07T02:00:25.371Z,90.48
2022-11-07T02:01:25.485Z,90.48
2022-11-07T02:02:25.416Z,90.48
2022-11-07T02:03:25.321Z,90.48
2022-11-07T02:04:25.320Z,90.48
2022-11-07T02:05:25.313Z,90.48
2022-11-07T02:06:25.310Z,90.48
2022-11-07T02:07:25.273Z,90.48
2022-11-07T02:08:25.272Z,90.37
2022-11-07T02:09:25.249Z,90.37
2022-11-07T02:10:25.243Z,90.37
2022-11-07T02:11:25.250Z,90.37
2022-11-07T02:12:25.223Z,90.48
2022-11-07T02:13:25.193Z,90.48
2022-11-07T02:14:25.181Z,90.48
2022-11-07T02:15:25.177Z,90.37
2022-11-07T02:16:25.161Z,90.37
2022-11-07T02:17:25.153Z,90.28
2022-11-07T02:18:25.135Z,90.28
2022-11-07T02:19:25.122Z,90.17
2022-11-07T02:20:25.116Z,90.17
2022-11-07T02:21:25.092Z,90.07
2022-11-07T02:22:25.100Z,89.97
2022-11-07T02:23:25.073Z,89.97
2022-11-07T02:24:25.051Z,90.07
2022-11-07T02:25:25.044Z,90.17
2022-11-07T02:26:25.031Z,90.17
2022-11-07T02:27:25.042Z,90.28
2022-11-07T02:28:25.002Z,90.48
2022-11-07T02:29:24.996Z,90.48
2022-11-07T02:30:24.960Z,90.58
2022-11-07T02:31:24.963Z,90.58
2022-11-07T02:32:24.960Z,90.62
2022-11-07T02:33:24.942Z,90.62
2022-11-07T02:34:24.921Z,90.73
2022-11-07T02:35:24.913Z,90.83
2022-11-07T02:36:24.923Z,90.93
2022-11-07T02:37:24.884Z,91.03
2022-11-07T02:38:24.874Z,91.03
2022-11-07T02:39:24.852Z,91.03
2022-11-07T02:40:24.841Z,91.14
2022-11-07T02:41:24.834Z,91.24
2022-11-07T02:42:24.852Z,91.35
2022-11-07T02:43:24.805Z,91.35
2022-11-07T02:44:24.783Z,91.35
2022-11-07T02:45:24.774Z,91.44
2022-11-07T02:46:24.763Z,91.44
2022-11-07T02:47:24.774Z,91.44
2022-11-07T02:48:24.736Z,91.44
2022-11-07T02:49:24.723Z,91.44
2022-11-07T02:50:24.703Z,91.44
2022-11-07T02:51:24.693Z,91.55
2022-11-07T02:52:24.684Z,91.55
2022-11-07T02:53:24.664Z,91.55
2022-11-07T02:54:24.653Z,91.59
2022-11-07T02:55:24.641Z,91.59
2022-11-07T02:56:24.637Z,91.69
2022-11-07T02:57:24.632Z,91.80
2022-11-07T02:58:24.683Z,91.90
2022-11-07T02:59:27.167Z,92.10
2022-11-07T03:00:24.586Z,92.21
2022-11-07T03:01:24.666Z,92.51
2022-11-07T03:02:24.737Z,92.61
2022-11-07T03:03:24.527Z,92.72
2022-11-07T03:04:24.523Z,92.82
2022-11-07T03:05:24.503Z,92.82
2022-11-07T03:06:24.516Z,92.82
2022-11-07T03:07:24.493Z,92.82
2022-11-07T03:08:24.473Z,92.82
2022-11-07T03:09:24.451Z,92.72
2022-11-07T03:10:24.434Z,92.72
2022-11-07T03:11:24.424Z,92.72
2022-11-07T03:12:24.434Z,92.61
2022-11-07T03:13:24.401Z,92.51
2022-11-07T03:14:24.418Z,92.41
2022-11-07T03:15:24.370Z,92.31
2022-11-07T03:16:24.355Z,92.31
2022-11-07T03:17:24.362Z,92.31
2022-11-07T03:18:24.338Z,92.16
2022-11-07T03:19:24.323Z,92.16
2022-11-07T03:20:24.304Z,92.16
2022-11-07T03:21:24.291Z,92.16
2022-11-07T03:22:24.304Z,92.16
2022-11-07T03:23:24.263Z,92.06
2022-11-07T03:24:24.253Z,91.96
2022-11-07T03:25:24.244Z,91.96
2022-11-07T03:26:24.234Z,91.96
2022-11-07T03:27:24.232Z,91.86
2022-11-07T03:28:24.203Z,91.86
2022-11-07T03:29:24.183Z,91.86
2022-11-07T03:30:24.203Z,91.86
2022-11-07T03:31:24.154Z,91.86
2022-11-07T03:32:24.172Z,91.96
2022-11-07T03:33:24.133Z,92.10
2022-11-07T03:34:24.123Z,92.21
2022-11-07T03:35:24.109Z,92.31
2022-11-07T03:36:24.096Z,92.31
2022-11-07T03:37:24.094Z,92.31
2022-11-07T03:38:24.076Z,92.41
2022-11-07T03:39:25.972Z,92.41
2022-11-07T03:40:24.042Z,92.51
2022-11-07T03:41:24.034Z,92.51
2022-11-07T03:42:24.032Z,92.61
2022-11-07T03:43:24.004Z,92.72
2022-11-07T03:44:23.994Z,92.72
2022-11-07T03:45:23.975Z,92.72
2022-11-07T03:46:23.963Z,92.82
2022-11-07T03:47:23.965Z,92.93
2022-11-07T03:48:23.949Z,92.93
2022-11-07T03:49:23.916Z,93.02
2022-11-07T03:50:23.914Z,93.02
2022-11-07T03:51:23.886Z,93.02
2022-11-07T03:52:23.909Z,93.02
2022-11-07T03:53:25.834Z,93.13
2022-11-07T03:54:23.864Z,93.23
2022-11-07T03:55:23.835Z,93.33
2022-11-07T03:56:23.824Z,93.33
2022-11-07T03:57:23.813Z,93.33
2022-11-07T03:58:23.794Z,93.33
2022-11-07T03:59:23.783Z,93.33
2022-11-07T04:00:23.769Z,93.33
2022-11-07T04:01:23.858Z,93.33
2022-11-07T04:02:23.884Z,93.33
2022-11-07T04:03:23.735Z,93.33
2022-11-07T04:04:23.730Z,93.44
2022-11-07T04:05:23.704Z,93.44
2022-11-07T04:06:23.694Z,93.54
2022-11-07T04:07:23.696Z,93.54
2022-11-07T04:08:23.675Z,93.64
2022-11-07T04:09:23.644Z,93.64
2022-11-07T04:10:23.640Z,93.74
2022-11-07T04:11:23.625Z,93.85
2022-11-07T04:12:23.624Z,93.85
2022-11-07T04:13:23.594Z,93.85
2022-11-07T04:14:23.584Z,93.95
2022-11-07T04:15:23.574Z,93.85
2022-11-07T04:16:23.554Z,93.95
2022-11-07T04:17:23.574Z,93.95
2022-11-07T04:18:23.536Z,93.95
2022-11-07T04:19:23.523Z,93.95
2022-11-07T04:20:23.531Z,93.95
2022-11-07T04:21:23.497Z,93.95
2022-11-07T04:22:23.488Z,93.95
2022-11-07T04:23:23.497Z,93.95
2022-11-07T04:24:23.467Z,93.95
2022-11-07T04:25:23.435Z,93.95
2022-11-07T04:26:23.435Z,93.95
2022-11-07T04:27:23.436Z,93.95
2022-11-07T04:28:23.406Z,93.95
2022-11-07T04:29:23.385Z,93.85
2022-11-07T04:30:23.384Z,93.85
2022-11-07T04:31:23.377Z,93.74
2022-11-07T04:32:23.385Z,93.74
2022-11-07T04:33:23.335Z,93.60
2022-11-07T04:34:23.336Z,93.60
2022-11-07T04:35:23.316Z,93.49
2022-11-07T04:36:23.305Z,93.49
2022-11-07T04:37:23.306Z,93.49
2022-11-07T04:38:23.283Z,93.39
2022-11-07T04:39:23.256Z,93.39
2022-11-07T04:40:23.264Z,93.49
2022-11-07T04:41:23.226Z,93.54
2022-11-07T04:42:23.217Z,93.54
2022-11-07T04:43:23.226Z,93.64
2022-11-07T04:44:23.204Z,93.64
2022-11-07T04:45:23.177Z,93.64
2022-11-07T04:46:23.181Z,93.64
2022-11-07T04:47:23.159Z,93.64
2022-11-07T04:48:23.167Z,93.74
2022-11-07T04:49:23.127Z,93.74
2022-11-07T04:50:23.126Z,93.85
2022-11-07T04:51:23.110Z,93.95
2022-11-07T04:52:23.097Z,94.05
2022-11-07T04:53:23.094Z,94.15
2022-11-07T04:54:23.066Z,94.15
2022-11-07T04:55:23.046Z,94.15
2022-11-07T04:56:23.044Z,94.26
2022-11-07T04:57:23.016Z,94.26
2022-11-07T04:58:23.036Z,94.15
2022-11-07T04:59:22.996Z,94.15
2022-11-07T05:00:22.989Z,94.15
2022-11-07T05:01:23.017Z,94.15
2022-11-07T05:02:23.062Z,94.15
2022-11-07T05:03:22.956Z,94.15
2022-11-07T05:04:22.926Z,94.15
2022-11-07T05:05:22.916Z,94.15
2022-11-07T05:06:22.906Z,94.15
2022-11-07T05:07:22.886Z,94.15
2022-11-07T05:08:22.906Z,94.15
2022-11-07T05:09:22.866Z,94.05
2022-11-07T05:10:22.856Z,94.05
2022-11-07T05:11:22.835Z,94.05
2022-11-07T05:12:22.817Z,93.95
2022-11-07T05:13:22.807Z,93.90
2022-11-07T05:14:22.820Z,93.85
2022-11-07T05:15:22.789Z,93.74
2022-11-07T05:16:22.776Z,93.74
2022-11-07T05:17:27.726Z,93.74
2022-11-07T05:18:23.757Z,93.64
2022-11-07T05:19:22.768Z,93.64
2022-11-07T05:20:22.718Z,93.64
2022-11-07T05:21:22.697Z,93.64
2022-11-07T05:22:22.695Z,93.74
2022-11-07T05:23:22.687Z,93.74
2022-11-07T05:24:22.687Z,93.85
2022-11-07T05:25:22.650Z,93.85
2022-11-07T05:26:22.646Z,93.85
2022-11-07T05:27:22.631Z,93.95
2022-11-07T05:28:31.132Z,93.95
2022-11-07T05:29:23.616Z,93.95
2022-11-07T05:30:22.588Z,93.95
2022-11-07T05:31:22.577Z,93.95
2022-11-07T05:32:22.559Z,94.05
2022-11-07T05:33:22.548Z,94.05
2022-11-07T05:34:22.547Z,94.05
2022-11-07T05:35:22.517Z,94.15
2022-11-07T05:36:22.518Z,94.26
2022-11-07T05:37:22.487Z,94.36
2022-11-07T05:38:22.478Z,94.36
2022-11-07T05:39:22.478Z,94.46
2022-11-07T05:40:22.472Z,94.46
2022-11-07T05:41:22.440Z,94.56
2022-11-07T05:42:22.430Z,94.46
2022-11-07T05:43:22.407Z,94.46
2022-11-07T05:44:22.420Z,94.36
2022-11-07T05:45:22.382Z,94.36
2022-11-07T05:46:22.368Z,94.36
2022-11-07T05:47:22.357Z,94.36
2022-11-07T05:48:22.348Z,94.46
2022-11-07T05:49:22.348Z,94.46
2022-11-07T05:50:22.319Z,94.46
2022-11-07T05:51:22.297Z,94.61
2022-11-07T05:52:22.288Z,94.61
2022-11-07T05:53:22.377Z,94.61
2022-11-07T05:54:22.277Z,94.61
2022-11-07T05:55:22.248Z,94.61
2022-11-07T05:56:22.239Z,94.61
2022-11-07T05:57:22.218Z,94.61
2022-11-07T05:58:22.217Z,94.61
2022-11-07T05:59:22.210Z,94.71
2022-11-07T06:00:22.188Z,94.71
2022-11-07T06:01:22.210Z,94.71
2022-11-07T06:02:22.241Z,94.81
2022-11-07T06:03:22.159Z,94.81
2022-11-07T06:04:22.147Z,94.92
2022-11-07T06:05:24.354Z,94.92
2022-11-07T06:06:22.097Z,95.02
2022-11-07T06:07:22.078Z,95.02
2022-11-07T06:08:22.068Z,95.06
2022-11-07T06:09:22.088Z,95.06
2022-11-07T06:10:22.047Z,95.17
2022-11-07T06:11:22.038Z,95.27
2022-11-07T06:12:22.028Z,95.37
2022-11-07T06:13:22.008Z,95.47
2022-11-07T06:14:22.010Z,95.43
2022-11-07T06:15:21.979Z,95.43
2022-11-07T06:16:21.979Z,95.43
2022-11-07T06:17:21.949Z,95.43
2022-11-07T06:18:21.970Z,95.32
2022-11-07T06:19:21.933Z,95.43
2022-11-07T06:20:21.925Z,95.53
2022-11-07T06:21:21.897Z,95.53
2022-11-07T06:22:21.889Z,95.53
2022-11-07T06:23:21.878Z,95.53
2022-11-07T06:24:21.858Z,95.53
2022-11-07T06:25:21.848Z,95.53
2022-11-07T06:26:21.828Z,95.43
2022-11-07T06:27:21.809Z,95.43
2022-11-07T06:28:21.829Z,95.43
2022-11-07T06:29:21.797Z,95.43
2022-11-07T06:30:21.798Z,95.43
2022-11-07T06:31:21.759Z,95.43
2022-11-07T06:32:21.750Z,95.43
2022-11-07T06:33:21.740Z,95.32
2022-11-07T06:34:21.990Z,95.32
2022-11-07T06:35:21.710Z,95.32
2022-11-07T06:36:21.699Z,95.23
2022-11-07T06:37:21.681Z,95.23
2022-11-07T06:38:21.678Z,95.32
2022-11-07T06:39:21.670Z,95.23
2022-11-07T06:40:21.640Z,95.18
2022-11-07T06:41:21.630Z,95.18
2022-11-07T06:42:21.612Z,95.18
2022-11-07T06:43:21.590Z,95.28
2022-11-07T06:44:21.628Z,95.28
2022-11-07T06:45:21.573Z,95.28
2022-11-07T06:46:21.560Z,95.39
2022-11-07T06:47:21.547Z,95.39
2022-11-07T06:48:21.542Z,95.39
2022-11-07T06:49:21.509Z,95.39
2022-11-07T06:50:21.510Z,95.39
2022-11-07T06:51:21.488Z,95.28
2022-11-07T06:52:21.479Z,95.18
2022-11-07T06:53:21.469Z,96.98
2022-11-07T06:54:21.469Z,98.27
2022-11-07T06:55:21.439Z,99.76
2022-11-07T06:56:21.439Z,98.99
2022-11-07T06:57:21.412Z,97.72
2022-11-07T06:58:21.400Z,95.69
2022-11-07T06:59:21.399Z,94.11
2022-11-07T07:00:22.044Z,92.54
2022-11-07T07:01:22.250Z,90.75
2022-11-07T07:02:44.240Z,89.39
2022-11-07T07:03:22.362Z,87.08
2022-11-07T07:04:21.341Z,86.00
2022-11-07T07:05:21.475Z,86.10
2022-11-07T07:06:21.308Z,86.20
2022-11-07T07:07:21.282Z,86.44
2022-11-07T07:08:21.271Z,86.55
2022-11-07T07:09:21.270Z,86.79
2022-11-07T07:10:21.249Z,87.10
2022-11-07T07:11:21.231Z,87.45
2022-11-07T07:12:21.220Z,87.96
2022-11-07T07:13:21.200Z,88.57
2022-11-07T07:14:21.190Z,89.09
2022-11-07T07:15:21.181Z,89.33
2022-11-07T07:16:21.162Z,89.64
2022-11-07T07:17:21.171Z,89.84
2022-11-07T07:18:21.143Z,90.36
2022-11-07T07:19:21.141Z,90.56
2022-11-07T07:20:21.110Z,90.70
2022-11-07T07:21:21.109Z,91.01
2022-11-07T07:22:21.082Z,91.22
2022-11-07T07:23:21.481Z,91.42
2022-11-07T07:24:21.089Z,91.52
2022-11-07T07:25:21.057Z,91.63
2022-11-07T07:26:21.040Z,91.63
2022-11-07T07:27:21.020Z,91.63
2022-11-07T07:28:21.022Z,91.73
2022-11-07T07:29:21.011Z,91.93
2022-11-07T07:30:20.981Z,92.14
2022-11-07T07:31:20.970Z,92.14
2022-11-07T07:32:21.754Z,92.14
2022-11-07T07:33:21.286Z,92.14
2022-11-07T07:34:20.931Z,92.14
2022-11-07T07:35:20.911Z,92.24
2022-11-07T07:36:21.210Z,92.24
2022-11-07T07:37:20.882Z,92.34
2022-11-07T07:38:20.879Z,92.44
2022-11-07T07:39:20.876Z,92.55
2022-11-07T07:40:20.821Z,92.55
2022-11-07T07:41:20.850Z,92.55
2022-11-07T07:42:20.821Z,92.65
2022-11-07T07:43:20.833Z,92.65
2022-11-07T07:44:20.811Z,92.65
2022-11-07T07:45:20.792Z,92.65
2022-11-07T07:46:20.763Z,92.65
2022-11-07T07:47:20.765Z,92.65
2022-11-07T07:48:20.742Z,92.75
2022-11-07T07:49:20.742Z,92.85
2022-11-07T07:50:20.722Z,92.85
2022-11-07T07:51:20.712Z,92.85
2022-11-07T07:52:21.132Z,92.85
2022-11-07T07:53:21.002Z,92.85
2022-11-07T07:54:21.148Z,92.85
2022-11-07T07:55:21.091Z,92.96
2022-11-07T07:56:20.742Z,92.96
2022-11-07T07:57:20.633Z,92.96
2022-11-07T07:58:20.611Z,92.96
2022-11-07T07:59:20.599Z,92.96
2022-11-07T08:00:20.611Z,92.91
2022-11-07T08:01:20.597Z,92.85
2022-11-07T08:02:20.602Z,92.81
2022-11-07T08:03:20.561Z,92.81
2022-11-07T08:04:20.531Z,92.81
2022-11-07T08:05:20.520Z,92.91
2022-11-07T08:06:20.501Z,93.01
2022-11-07T08:07:20.483Z,93.01
2022-11-07T08:08:20.489Z,92.91
2022-11-07T08:09:20.463Z,92.91
2022-11-07T08:10:41.348Z,92.91
2022-11-07T08:11:21.444Z,92.91
2022-11-07T08:12:20.414Z,92.91
2022-11-07T08:13:20.423Z,93.01
2022-11-07T08:14:20.413Z,93.01
2022-11-07T08:15:20.392Z,93.01
2022-11-07T08:16:20.373Z,92.91
2022-11-07T08:17:20.363Z,92.91
2022-11-07T08:18:20.342Z,92.81
2022-11-07T08:19:20.373Z,92.81
2022-11-07T08:20:20.320Z,92.71
2022-11-07T08:21:20.304Z,92.71
2022-11-07T08:22:20.292Z,92.60
2022-11-07T08:23:20.547Z,92.50
2022-11-07T08:24:20.283Z,92.46
2022-11-07T08:25:20.254Z,92.46
2022-11-07T08:26:20.235Z,92.46
2022-11-07T08:27:20.234Z,92.36
2022-11-07T08:28:20.221Z,92.36
2022-11-07T08:29:20.223Z,92.36
2022-11-07T08:30:20.193Z,92.46
2022-11-07T08:31:20.172Z,92.46
2022-11-07T08:32:20.160Z,92.46
2022-11-07T08:33:20.406Z,92.36
2022-11-07T08:34:20.133Z,92.46
2022-11-07T08:35:20.124Z,92.46
2022-11-07T08:36:20.092Z,92.46
2022-11-07T08:37:20.103Z,92.46
2022-11-07T08:38:20.101Z,92.46
2022-11-07T08:39:20.066Z,92.36
2022-11-07T08:40:20.044Z,92.36
2022-11-07T08:41:22.409Z,92.36
2022-11-07T08:42:20.022Z,92.36
2022-11-07T08:43:20.039Z,92.25
2022-11-07T08:44:20.001Z,92.25
2022-11-07T08:45:19.984Z,92.25
2022-11-07T08:46:19.976Z,92.25
2022-11-07T08:47:19.972Z,92.21
2022-11-07T08:48:19.943Z,92.25
2022-11-07T08:49:19.943Z,92.42
2022-11-07T08:50:19.935Z,92.42
2022-11-07T08:51:19.914Z,92.32
2022-11-07T08:52:19.902Z,92.21
2022-11-07T08:53:20.246Z,92.11
2022-11-07T08:54:19.891Z,92.11
2022-11-07T08:55:19.867Z,92.01
2022-11-07T08:56:19.846Z,92.01
2022-11-07T08:57:19.836Z,92.01
2022-11-07T08:58:19.841Z,92.01
2022-11-07T08:59:19.813Z,92.11
2022-11-07T09:00:19.792Z,92.11
2022-11-07T09:01:19.854Z,92.01
2022-11-07T09:04:20.788Z,91.91
2022-11-07T09:05:19.740Z,91.80
2022-11-07T09:06:19.713Z,91.70
2022-11-07T09:07:19.703Z,91.50
2022-11-07T09:08:19.700Z,91.50
2022-11-07T09:09:19.688Z,91.50
2022-11-07T09:10:19.656Z,91.50
2022-11-07T09:11:19.655Z,91.50
2022-11-07T09:12:19.635Z,91.50
2022-11-07T09:13:19.851Z,91.70
2022-11-07T09:14:19.616Z,91.66
2022-11-07T09:15:19.597Z,91.70
2022-11-07T09:16:19.583Z,91.70
2022-11-07T09:17:19.576Z,91.60
2022-11-07T09:18:19.609Z,91.60
2022-11-07T09:19:19.546Z,91.56
2022-11-07T09:20:19.526Z,91.76
2022-11-07T09:21:22.675Z,91.66
2022-11-07T09:22:19.507Z,91.66
2022-11-07T09:23:19.890Z,91.66
2022-11-07T09:24:19.476Z,91.66
2022-11-07T09:25:19.467Z,91.66
2022-11-07T09:26:19.435Z,91.76
2022-11-07T09:27:19.444Z,91.76
2022-11-07T09:28:19.447Z,91.86
2022-11-07T09:29:19.414Z,91.96
2022-11-07T09:30:19.397Z,91.96
2022-11-07T09:31:19.378Z,91.86
2022-11-07T09:32:43.406Z,91.76
2022-11-07T09:33:20.387Z,91.66
2022-11-07T09:34:19.344Z,91.66
2022-11-07T09:35:19.336Z,91.56
2022-11-07T09:36:19.325Z,91.66
2022-11-07T09:37:19.316Z,91.66
2022-11-07T09:38:19.286Z,91.66
2022-11-07T09:39:19.307Z,91.66
2022-11-07T09:40:19.263Z,91.56
2022-11-07T09:41:19.256Z,91.56
2022-11-07T09:42:19.237Z,91.46
2022-11-07T09:43:19.523Z,91.35
2022-11-07T09:44:19.236Z,91.35
2022-11-07T09:45:19.207Z,91.56
2022-11-07T09:46:19.194Z,91.46
2022-11-07T09:47:19.187Z,91.35
2022-11-07T09:48:19.154Z,91.35
2022-11-07T09:49:19.177Z,91.25
2022-11-07T09:50:19.136Z,90.94
2022-11-07T09:51:19.143Z,90.84
2022-11-07T09:52:19.108Z,90.74
2022-11-07T09:53:19.106Z,90.64
2022-11-07T09:54:19.106Z,90.64
2022-11-07T09:55:19.076Z,90.53
2022-11-07T09:56:19.096Z,90.19
2022-11-07T09:57:19.047Z,89.88
2022-11-07T09:58:19.027Z,89.78
2022-11-07T09:59:19.038Z,89.78
2022-11-07T10:00:18.997Z,89.88
2022-11-07T10:01:19.087Z,89.88
2022-11-07T10:02:19.067Z,89.88
2022-11-07T10:03:19.243Z,89.98
2022-11-07T10:04:27.058Z,89.58
2022-11-07T10:05:19.948Z,88.96
2022-11-07T10:06:24.008Z,88.85
2022-11-07T10:07:19.909Z,89.06
2022-11-07T10:08:18.897Z,89.06
2022-11-07T10:09:18.900Z,89.06
2022-11-07T10:10:18.867Z,89.17
2022-11-07T10:11:18.865Z,89.17
2022-11-07T10:12:18.848Z,88.85
2022-11-07T10:13:19.102Z,88.92
2022-11-07T10:14:18.847Z,88.71
2022-11-07T10:15:18.808Z,88.61
2022-11-07T10:16:18.808Z,88.71
2022-11-07T10:17:18.779Z,88.71
2022-11-07T10:18:18.768Z,88.82
2022-11-07T10:19:18.779Z,88.92
2022-11-07T10:20:23.496Z,88.82
2022-11-07T10:22:19.708Z,88.71
2022-11-07T10:23:18.896Z,88.51
2022-11-07T10:24:18.718Z,88.10
2022-11-07T10:25:18.688Z,88.10
2022-11-07T10:26:18.659Z,88.00
2022-11-07T10:27:18.657Z,88.10
2022-11-07T10:28:18.637Z,88.47
2022-11-07T10:29:18.649Z,88.31
2022-11-07T10:30:18.627Z,88.06
2022-11-07T10:31:18.608Z,87.96
2022-11-07T10:32:18.586Z,88.06
2022-11-07T10:33:18.713Z,88.06
2022-11-07T10:34:18.578Z,87.96
2022-11-07T10:35:18.549Z,87.85
2022-11-07T10:36:18.530Z,88.06
2022-11-07T10:37:18.544Z,88.17
2022-11-07T10:38:18.542Z,88.26
2022-11-07T10:39:18.512Z,88.37
2022-11-07T10:40:18.530Z,88.37
2022-11-07T10:41:18.470Z,88.37
2022-11-07T10:42:18.448Z,88.26
2022-11-07T10:43:18.763Z,88.37
2022-11-07T10:44:18.460Z,88.47
2022-11-07T10:45:18.409Z,88.57
2022-11-07T10:46:18.472Z,88.67
2022-11-07T10:47:18.380Z,88.88
2022-11-07T10:48:18.732Z,89.18
2022-11-07T10:49:18.360Z,88.98
2022-11-07T10:50:18.405Z,88.67
2022-11-07T10:51:18.347Z,88.67
2022-11-07T10:52:18.330Z,88.57
2022-11-07T10:53:18.309Z,88.37
2022-11-07T10:54:21.918Z,88.47
2022-11-07T10:55:18.298Z,88.47
2022-11-07T10:56:18.270Z,88.57
2022-11-07T10:57:18.254Z,88.57
2022-11-07T10:58:18.438Z,88.67
2022-11-07T10:59:18.232Z,88.78
2022-11-07T11:00:18.229Z,88.78
2022-11-07T11:01:18.216Z,88.78
2022-11-07T11:02:18.231Z,88.78
2022-11-07T11:03:18.159Z,88.78
2022-11-07T11:04:18.170Z,88.37
2022-11-07T11:05:18.170Z,88.06
2022-11-07T11:06:18.142Z,87.96
2022-11-07T11:07:18.129Z,87.85
2022-11-07T11:08:18.809Z,87.96
2022-11-07T11:09:18.100Z,87.96
2022-11-07T11:10:18.115Z,88.06
2022-11-07T11:11:18.071Z,87.85
2022-11-07T11:12:18.050Z,87.96
2022-11-07T11:13:18.043Z,88.06
2022-11-07T11:14:18.038Z,88.06
2022-11-07T11:15:18.032Z,88.17
2022-11-07T11:16:18.010Z,88.17
2022-11-07T11:17:18.073Z,88.26
2022-11-07T11:18:18.578Z,88.26
2022-11-07T11:19:17.971Z,88.26
2022-11-07T11:20:17.970Z,88.17
2022-11-07T11:21:17.941Z,87.82
2022-11-07T11:22:17.933Z,87.71
2022-11-07T11:23:18.327Z,87.71
2022-11-07T11:24:17.901Z,87.61
2022-11-07T11:25:17.912Z,87.51
2022-11-07T11:26:17.868Z,87.30
2022-11-07T11:27:17.855Z,87.41
2022-11-07T11:28:18.220Z,87.41
2022-11-07T11:29:17.842Z,87.41
2022-11-07T11:30:17.835Z,86.96
2022-11-07T11:31:17.825Z,86.96
2022-11-07T11:32:17.810Z,87.06
2022-11-07T11:33:18.037Z,87.47
2022-11-07T11:34:17.783Z,87.47
2022-11-07T11:35:17.781Z,87.26
2022-11-07T11:36:17.743Z,87.16
2022-11-07T11:37:17.722Z,86.76
2022-11-07T11:38:17.723Z,86.55
2022-11-07T11:39:17.842Z,86.86
2022-11-07T11:40:17.708Z,86.55
2022-11-07T11:41:17.682Z,86.35
2022-11-07T11:42:17.662Z,86.35
2022-11-07T11:43:17.860Z,86.35
2022-11-07T11:44:17.647Z,86.51
2022-11-07T11:45:17.641Z,86.30
2022-11-07T11:46:17.612Z,86.21
2022-11-07T11:47:17.591Z,86.30
2022-11-07T11:48:17.587Z,86.10
2022-11-07T11:49:17.570Z,85.90
2022-11-07T11:50:17.563Z,86.04
2022-11-07T11:51:17.560Z,85.80
2022-11-07T11:52:17.532Z,85.69
2022-11-07T11:53:18.111Z,85.69
2022-11-07T11:54:17.522Z,85.90
2022-11-07T11:55:17.494Z,86.30
2022-11-07T11:56:17.511Z,86.21
2022-11-07T11:57:17.474Z,86.15
2022-11-07T11:58:17.453Z,86.24
2022-11-07T11:59:17.452Z,85.84
2022-11-07T12:00:17.424Z,85.94
2022-11-07T12:01:17.454Z,86.24
2022-11-07T12:02:17.422Z,86.35
2022-11-07T12:03:17.787Z,85.84
2022-11-07T12:04:17.393Z,85.60
2022-11-07T12:05:17.362Z,85.39
2022-11-07T12:06:17.364Z,85.49
2022-11-07T12:07:17.331Z,85.94
2022-11-07T12:08:17.333Z,86.10
2022-11-07T12:09:18.453Z,86.35
2022-11-07T12:10:17.294Z,86.55
2022-11-07T12:11:17.295Z,85.90
2022-11-07T12:12:17.273Z,85.69
2022-11-07T12:13:17.666Z,85.60
2022-11-07T12:14:17.255Z,85.80
2022-11-07T12:15:17.223Z,85.94
2022-11-07T12:16:17.232Z,86.35
2022-11-07T12:17:17.214Z,86.24
2022-11-07T12:18:17.196Z,86.10
2022-11-07T12:19:17.173Z,85.90
2022-11-07T12:20:17.165Z,85.90
2022-11-07T12:21:17.162Z,86.21
2022-11-07T12:22:17.145Z,85.80
2022-11-07T12:23:17.505Z,85.49
2022-11-07T12:24:17.123Z,85.28
2022-11-07T12:25:17.146Z,85.39
2022-11-07T12:26:17.104Z,85.60
2022-11-07T12:27:17.956Z,85.60
2022-11-07T12:28:17.055Z,85.28
2022-11-07T12:29:17.045Z,85.28
2022-11-07T12:30:17.024Z,85.28
2022-11-07T12:31:17.026Z,85.19
2022-11-07T12:32:17.015Z,85.28
2022-11-07T12:33:17.301Z,85.60
2022-11-07T12:34:16.976Z,85.60
2022-11-07T12:35:16.973Z,85.60
2022-11-07T12:36:17.004Z,85.49
2022-11-07T12:37:16.940Z,85.49
2022-11-07T12:38:16.947Z,85.39
2022-11-07T12:39:16.927Z,85.49
2022-11-07T12:40:16.905Z,85.80
2022-11-07T12:41:16.944Z,85.96
2022-11-07T12:42:16.874Z,85.66
2022-11-07T12:43:17.308Z,85.45
2022-11-07T12:44:16.847Z,85.35
2022-11-07T12:45:16.840Z,85.35
2022-11-07T12:46:16.837Z,85.55
2022-11-07T12:47:16.800Z,85.55
2022-11-07T12:48:16.912Z,85.75
2022-11-07T12:49:16.770Z,85.86
2022-11-07T12:50:16.765Z,85.55
2022-11-07T12:51:16.760Z,85.25
2022-11-07T12:52:16.746Z,85.35
2022-11-07T12:53:17.323Z,85.90
2022-11-07T12:54:16.851Z,86.06
2022-11-07T12:55:16.697Z,86.10